Time;durP1;ratioP1;P1;durP2;ratioP2;P2;SDS_P1;SDS_P2;PMS_P1;PMS_P2;Temp;Humidity;BMP_temperature;BMP_pressure;BME280_temperature;BME280_humidity;BME280_pressure;Samples;Min_cycle;Max_cycle;Signal;HPM_P1;HPM_P2
2022/10/26 00:02:08;;;;;;;0.20;0.20;;;20.90;69.70;;;;;;4956997;28;20397;-33
2022/10/26 00:04:34;;;;;;;0.40;0.40;;;21.00;69.60;;;;;;4957610;28;20531;-33
2022/10/26 00:06:59;;;;;;;0.32;0.32;;;20.90;69.60;;;;;;4959630;28;20030;-34
2022/10/26 00:09:25;;;;;;;0.15;0.15;;;20.90;69.90;;;;;;4956153;28;20109;-32
2022/10/26 00:11:51;;;;;;;0.30;0.28;;;20.90;69.80;;;;;;4958547;28;20431;-35
2022/10/26 00:14:16;;;;;;;0.30;0.30;;;20.90;69.80;;;;;;4956000;28;20521;-31
2022/10/26 00:16:42;;;;;;;0.70;0.45;;;20.90;69.70;;;;;;4956994;28;20031;-32
2022/10/26 00:19:08;;;;;;;0.30;0.30;;;20.90;70.70;;;;;;4956840;28;20023;-31
2022/10/26 00:21:33;;;;;;;0.30;0.30;;;20.90;70.40;;;;;;4959034;28;20041;-32
2022/10/26 00:23:59;;;;;;;0.30;0.30;;;21.00;69.60;;;;;;4958450;28;20019;-34
2022/10/26 00:26:24;;;;;;;0.20;0.20;;;21.00;69.50;;;;;;4956467;28;20091;-37
2022/10/26 00:28:53;;;;;;;0.30;0.30;;;20.90;69.70;;;;;;4956978;28;20019;-33
2022/10/26 00:31:19;;;;;;;0.43;0.43;;;20.90;70.40;;;;;;4955840;28;20118;-32
2022/10/26 00:33:45;;;;;;;0.40;0.40;;;20.90;69.60;;;;;;4962048;28;20118;-32
2022/10/26 00:36:12;;;;;;;0.20;0.20;;;20.90;69.80;;;;;;4958396;28;20086;-38
2022/10/26 00:38:52;;;;;;;0.30;0.30;;;20.90;69.70;;;;;;5062820;28;20410;-34
2022/10/26 00:41:19;;;;;;;0.30;0.30;;;20.90;69.90;;;;;;5055964;28;20120;-53
2022/10/26 00:43:44;;;;;;;0.20;0.20;;;20.90;69.60;;;;;;5049894;28;20088;-54
2022/10/26 00:46:12;;;;;;;0.30;0.30;;;20.90;70.70;;;;;;5051701;28;20029;-42
2022/10/26 00:48:45;;;;;;;0.38;0.32;;;20.90;69.80;;;;;;5049890;28;20029;-36
2022/10/26 00:51:38;;;;;;;0.30;0.30;;;20.90;70.00;;;;;;5051544;28;20529;-46
2022/10/26 00:54:06;;;;;;;0.30;0.30;;;20.80;69.90;;;;;;5053075;28;20039;-43
2022/10/26 00:56:31;;;;;;;0.30;0.30;;;20.90;69.90;;;;;;5050843;28;20029;-46
2022/10/26 00:59:00;;;;;;;0.30;0.30;;;20.90;70.80;;;;;;5056360;28;20401;-32
2022/10/26 01:01:25;;;;;;;0.22;0.22;;;20.90;70.70;;;;;;5049696;28;20033;-37
2022/10/26 01:03:51;;;;;;;0.30;0.30;;;20.90;69.90;;;;;;5047321;28;20395;-33
2022/10/26 01:06:16;;;;;;;0.30;0.30;;;20.90;70.00;;;;;;5051735;28;20024;-34
2022/10/26 01:08:42;;;;;;;0.90;0.40;;;20.80;70.00;;;;;;5049241;28;20555;-30
2022/10/26 01:11:08;;;;;;;0.52;0.40;;;20.90;69.80;;;;;;5056356;28;20025;-33
2022/10/26 01:13:34;;;;;;;0.20;0.20;;;20.90;70.00;;;;;;5048587;28;20149;-35
2022/10/26 01:16:00;;;;;;;0.28;0.28;;;20.80;70.40;;;;;;5048266;28;20026;-37
2022/10/26 01:18:53;;;;;;;0.40;0.38;;;20.90;70.10;;;;;;5049521;28;20033;-34
2022/10/26 01:21:40;;;;;;;0.20;0.20;;;20.80;70.10;;;;;;5050605;28;20021;-31
2022/10/26 01:24:45;;;;;;;0.30;0.20;;;20.90;70.00;;;;;;5048883;28;20017;-34
2022/10/26 01:27:12;;;;;;;;;;;20.90;70.00;;;;;;5052846;28;20024;-35
2022/10/26 01:29:59;;;;;;;0.30;0.20;;;20.90;70.00;;;;;;5053932;28;20373;-30
2022/10/26 01:32:44;;;;;;;0.20;0.20;;;20.80;70.10;;;;;;5051260;28;20371;-33
2022/10/26 01:35:12;;;;;;;0.20;0.20;;;20.90;70.00;;;;;;5048154;28;20032;-32
2022/10/26 01:37:42;;;;;;;0.80;0.20;;;20.90;70.10;;;;;;5049037;28;20489;-33
2022/10/26 01:40:09;;;;;;;0.45;0.30;;;20.90;69.80;;;;;;5048861;28;20096;-32
2022/10/26 01:42:35;;;;;;;0.30;0.30;;;20.90;69.90;;;;;;5047992;28;20037;-30
2022/10/26 01:45:04;;;;;;;0.40;0.30;;;20.90;69.80;;;;;;5048592;28;20057;-32
2022/10/26 01:47:29;;;;;;;0.40;0.32;;;20.90;69.70;;;;;;5048345;28;20029;-32
2022/10/26 01:49:55;;;;;;;0.55;0.20;;;20.90;69.80;;;;;;5035165;28;20168;-34
2022/10/26 01:52:21;;;;;;;0.40;0.30;;;20.80;69.90;;;;;;5034998;28;20402;-36
2022/10/26 01:54:47;;;;;;;0.13;0.13;;;20.80;69.80;;;;;;5035233;28;20017;-34
2022/10/26 01:57:15;;;;;;;0.30;0.25;;;20.80;69.80;;;;;;5036425;28;20033;-35
2022/10/26 02:00:05;;;;;;;0.20;0.20;;;20.80;69.90;;;;;;5040969;28;20060;-33
2022/10/26 02:02:37;;;;;;;0.32;0.32;;;20.80;69.80;;;;;;5036351;28;20024;-35
2022/10/26 02:05:24;;;;;;;0.10;0.10;;;20.90;69.80;;;;;;5034756;28;20025;-40
2022/10/26 02:08:03;;;;;;;0.43;0.40;;;20.90;69.70;;;;;;5035624;28;20489;-34
2022/10/26 02:10:35;;;;;;;0.15;0.15;;;20.80;69.80;;;;;;5031177;28;20021;-36
2022/10/26 02:13:03;;;;;;;0.22;0.20;;;20.80;69.80;;;;;;5032061;28;20065;-34
2022/10/26 02:15:35;;;;;;;0.10;0.10;;;20.80;70.00;;;;;;5037291;28;20441;-31
2022/10/26 02:18:10;;;;;;;0.30;0.20;;;20.80;69.80;;;;;;5034187;28;20026;-36
2022/10/26 02:20:39;;;;;;;0.22;0.17;;;20.80;70.00;;;;;;5050952;28;20033;-32
2022/10/26 02:23:05;;;;;;;0.30;0.30;;;20.80;69.90;;;;;;5018943;28;20021;-34
2022/10/26 02:25:33;;;;;;;0.50;0.43;;;20.80;69.90;;;;;;5034127;28;20521;-39
2022/10/26 02:28:01;;;;;;;0.68;0.40;;;20.80;69.80;;;;;;5034541;28;20026;-44
2022/10/26 02:30:27;;;;;;;0.20;0.20;;;20.80;69.80;;;;;;5032188;28;20025;-51
2022/10/26 02:32:54;;;;;;;0.20;0.20;;;20.80;69.90;;;;;;5040276;28;20021;-39
2022/10/26 02:35:21;;;;;;;0.20;0.20;;;20.80;69.80;;;;;;5035850;28;20033;-37
2022/10/26 02:37:47;;;;;;;0.25;0.25;;;20.80;69.90;;;;;;5037726;28;20056;-49
2022/10/26 02:40:15;;;;;;;0.30;0.30;;;20.80;69.80;;;;;;5037866;28;20021;-38
2022/10/26 02:42:41;;;;;;;0.30;0.30;;;20.80;69.80;;;;;;5037011;28;20037;-38
2022/10/26 02:45:09;;;;;;;0.30;0.28;;;20.80;69.90;;;;;;5018766;28;20013;-43
2022/10/26 02:47:35;;;;;;;0.30;0.30;;;20.80;70.00;;;;;;5017690;28;20136;-40
2022/10/26 02:50:00;;;;;;;0.22;0.22;;;20.80;70.00;;;;;;5036777;28;20108;-33
2022/10/26 02:52:49;;;;;;;0.10;0.10;;;20.70;70.10;;;;;;5039566;28;20013;-35
2022/10/26 02:55:39;;;;;;;0.20;0.20;;;20.80;70.20;;;;;;5033325;28;20075;-32
2022/10/26 02:58:07;;;;;;;0.17;0.10;;;20.70;70.10;;;;;;5035441;28;20029;-33
2022/10/26 03:00:32;;;;;;;0.20;0.20;;;20.80;70.10;;;;;;5033149;28;20029;-34
2022/10/26 03:02:58;;;;;;;0.30;0.20;;;20.80;70.00;;;;;;5034313;28;20021;-37
2022/10/26 03:05:28;;;;;;;0.30;0.30;;;20.80;70.20;;;;;;5033710;28;20057;-34
2022/10/26 03:07:54;;;;;;;0.20;0.20;;;20.80;70.30;;;;;;5035939;28;20031;-35
2022/10/26 03:10:19;;;;;;;0.30;0.30;;;20.80;70.20;;;;;;5039798;28;20021;-33
2022/10/26 03:12:45;;;;;;;0.40;0.30;;;20.80;70.50;;;;;;5034147;28;20033;-35
2022/10/26 03:15:11;;;;;;;0.10;0.10;;;20.80;70.30;;;;;;5037017;28;20083;-38
2022/10/26 03:17:36;;;;;;;0.45;0.38;;;20.70;70.90;;;;;;5038930;28;20076;-33
2022/10/26 03:20:02;;;;;;;0.40;0.28;;;20.70;70.80;;;;;;5032893;28;20116;-31
2022/10/26 03:22:27;;;;;;;0.77;0.25;;;20.80;70.10;;;;;;5033764;28;20037;-34
2022/10/26 03:24:53;;;;;;;0.17;0.15;;;20.70;70.80;;;;;;5034504;28;20031;-33
2022/10/26 03:27:19;;;;;;;0.28;0.20;;;20.70;70.70;;;;;;5034217;28;20060;-32
2022/10/26 03:29:44;;;;;;;0.25;0.20;;;20.70;70.70;;;;;;5036309;28;20017;-33
2022/10/26 03:32:10;;;;;;;0.30;0.30;;;20.70;70.30;;;;;;5038295;28;20021;-37
2022/10/26 03:34:35;;;;;;;0.17;0.15;;;20.80;70.60;;;;;;5033730;28;20017;-32
2022/10/26 03:37:01;;;;;;;0.20;0.20;;;20.70;70.80;;;;;;5036185;28;20044;-35
2022/10/26 03:39:26;;;;;;;0.43;0.20;;;20.70;70.80;;;;;;5034917;28;20493;-34
2022/10/26 03:41:52;;;;;;;0.35;0.30;;;20.70;70.70;;;;;;5035426;28;20026;-33
2022/10/26 03:44:17;;;;;;;0.30;0.20;;;20.70;70.70;;;;;;5032486;28;20078;-31
2022/10/26 03:46:43;;;;;;;0.20;0.20;;;20.70;70.70;;;;;;5033668;28;20116;-32
2022/10/26 03:49:09;;;;;;;0.25;0.25;;;20.70;70.50;;;;;;5036574;28;20036;-31
2022/10/26 03:51:34;;;;;;;0.65;0.20;;;20.70;71.10;;;;;;5034209;28;20037;-31
2022/10/26 03:54:00;;;;;;;0.35;0.20;;;20.70;70.70;;;;;;5037172;28;20029;-33
2022/10/26 03:56:25;;;;;;;1.77;0.30;;;20.70;70.50;;;;;;5032902;28;20063;-34
2022/10/26 03:58:51;;;;;;;0.20;0.20;;;20.80;70.20;;;;;;5033194;28;20056;-32
2022/10/26 04:01:16;;;;;;;0.38;0.20;;;20.70;71.00;;;;;;5033189;28;20021;-34
2022/10/26 04:03:42;;;;;;;0.30;0.20;;;20.70;70.60;;;;;;5035739;28;20029;-31
2022/10/26 04:06:07;;;;;;;0.30;0.30;;;20.70;71.20;;;;;;5033286;28;20029;-33
2022/10/26 04:08:33;;;;;;;0.80;0.25;;;20.70;70.80;;;;;;5030744;28;20494;-33
2022/10/26 04:10:58;;;;;;;0.30;0.20;;;20.70;71.10;;;;;;5034020;28;20037;-34
2022/10/26 04:13:24;;;;;;;0.77;0.20;;;20.70;70.80;;;;;;5035243;28;20519;-34
2022/10/26 04:15:50;;;;;;;0.38;0.20;;;20.70;70.70;;;;;;5036424;28;20037;-30
2022/10/26 04:18:15;;;;;;;0.50;0.40;;;20.70;70.90;;;;;;5039079;28;20025;-30
2022/10/26 04:20:41;;;;;;;0.20;0.10;;;20.70;71.10;;;;;;5036494;28;20482;-30
2022/10/26 04:23:12;;;;;;;0.20;0.20;;;20.70;71.00;;;;;;5033186;28;20025;-32
2022/10/26 04:25:38;;;;;;;0.40;0.20;;;20.70;71.20;;;;;;5035190;28;20030;-31
2022/10/26 04:28:04;;;;;;;0.30;0.20;;;20.60;71.60;;;;;;5036131;28;20090;-35
2022/10/26 04:30:30;;;;;;;0.35;0.30;;;20.70;71.00;;;;;;4677918;28;10000087;-34
2022/10/26 04:32:55;;;;;;;0.35;0.10;;;20.70;71.00;;;;;;5033813;28;20075;-33
2022/10/26 04:35:21;;;;;;;0.43;0.30;;;20.60;71.90;;;;;;5029834;28;20024;-30
2022/10/26 04:37:46;;;;;;;0.50;0.30;;;20.60;71.10;;;;;;5029595;28;20067;-31
2022/10/26 04:40:12;;;;;;;0.22;0.20;;;20.60;71.70;;;;;;5031154;28;20457;-33
2022/10/26 04:42:41;;;;;;;0.10;0.10;;;20.60;71.50;;;;;;5036119;28;20029;-36
2022/10/26 04:45:07;;;;;;;0.40;0.25;;;20.70;71.50;;;;;;5032057;28;20033;-33
2022/10/26 04:47:33;;;;;;;0.40;0.40;;;20.60;71.70;;;;;;5031911;28;20079;-34
2022/10/26 04:49:58;;;;;;;0.30;0.30;;;20.60;71.70;;;;;;5029213;28;20450;-36
2022/10/26 04:52:24;;;;;;;0.38;0.30;;;20.60;71.20;;;;;;5032558;28;20040;-32
2022/10/26 04:54:49;;;;;;;1.48;0.40;;;20.70;71.00;;;;;;5028781;28;20036;-32
2022/10/26 04:57:15;;;;;;;0.20;0.15;;;20.70;71.10;;;;;;5032231;28;20433;-49
2022/10/26 04:59:41;;;;;;;0.82;0.30;;;20.70;70.90;;;;;;5035525;28;20379;-47
2022/10/26 05:02:06;;;;;;;0.17;0.10;;;20.70;71.00;;;;;;5031461;28;20048;-48
2022/10/26 05:04:32;;;;;;;0.77;0.13;;;20.70;70.70;;;;;;5025295;28;20032;-41
2022/10/26 05:06:57;;;;;;;0.40;0.20;;;20.80;70.50;;;;;;5029114;28;20013;-40
2022/10/26 05:09:23;;;;;;;0.65;0.10;;;20.80;70.40;;;;;;5027994;28;20535;-45
2022/10/26 05:11:48;;;;;;;0.13;0.10;;;20.80;70.10;;;;;;5028406;28;20037;-56
2022/10/26 05:14:14;;;;;;;0.30;0.17;;;20.80;70.10;;;;;;5029327;28;20013;-43
2022/10/26 05:16:39;;;;;;;0.40;0.20;;;20.80;70.50;;;;;;5026223;28;20115;-48
2022/10/26 05:19:05;;;;;;;0.17;0.17;;;20.80;70.80;;;;;;5030241;28;20029;-43
2022/10/26 05:21:31;;;;;;;0.28;0.10;;;20.70;70.70;;;;;;5029850;28;20041;-45
2022/10/26 05:23:56;;;;;;;0.17;0.17;;;20.70;70.90;;;;;;5032137;28;20501;-42
2022/10/26 05:26:22;;;;;;;0.25;0.20;;;20.80;70.50;;;;;;5033746;28;20080;-40
2022/10/26 05:28:48;;;;;;;0.25;0.15;;;20.70;70.80;;;;;;5031228;28;20030;-41
2022/10/26 05:31:14;;;;;;;0.57;0.30;;;20.80;70.90;;;;;;5034460;28;20032;-40
2022/10/26 05:33:39;;;;;;;0.30;0.15;;;20.80;70.60;;;;;;5033303;28;20153;-44
2022/10/26 05:36:05;;;;;;;0.38;0.32;;;20.80;70.30;;;;;;5031541;28;20112;-36
2022/10/26 05:38:31;;;;;;;0.50;0.30;;;20.80;70.60;;;;;;5031718;28;20045;-42
2022/10/26 05:40:57;;;;;;;0.20;0.20;;;20.80;70.50;;;;;;5031982;28;20036;-43
2022/10/26 05:43:23;;;;;;;0.35;0.28;;;20.80;71.70;;;;;;5036540;28;20112;-35
2022/10/26 05:45:49;;;;;;;0.50;0.28;;;20.80;70.80;;;;;;5034671;28;20684;-53
2022/10/26 05:48:15;;;;;;;0.35;0.20;;;20.80;70.60;;;;;;5033059;28;20116;-42
2022/10/26 05:50:40;;;;;;;0.20;0.13;;;20.80;70.50;;;;;;5025313;28;20170;-43
2022/10/26 05:53:06;;;;;;;0.43;0.30;;;20.80;70.40;;;;;;5031451;28;20513;-43
2022/10/26 05:55:32;;;;;;;0.73;0.30;;;20.80;70.30;;;;;;5037878;28;20032;-33
2022/10/26 05:57:58;;;;;;;0.60;0.47;;;20.80;70.60;;;;;;5029550;28;20670;-36
2022/10/26 06:00:25;;;;;;;0.30;0.20;;;20.80;70.50;;;;;;5026669;28;20486;-44
2022/10/26 06:03:06;;;;;;;0.70;0.25;;;20.80;70.50;;;;;;5030993;28;20533;-37
2022/10/26 06:05:51;;;;;;;0.40;0.30;;;20.80;70.90;;;;;;5030787;28;20097;-52
2022/10/26 06:08:16;;;;;;;0.20;0.20;;;20.80;70.50;;;;;;5028025;28;20044;-48
2022/10/26 06:10:42;;;;;;;0.60;0.22;;;20.80;70.50;;;;;;5025020;28;20034;-41
2022/10/26 06:13:08;;;;;;;0.52;0.43;;;20.80;70.70;;;;;;5030396;28;20025;-39
2022/10/26 06:15:41;;;;;;;0.52;0.40;;;20.80;70.70;;;;;;5034418;28;20178;-34
2022/10/26 06:18:48;;;;;;;0.40;0.30;;;20.80;70.50;;;;;;5045876;28;20565;-31
2022/10/26 06:21:19;;;;;;;2.15;0.40;;;20.90;70.20;;;;;;5030980;28;20067;-34
2022/10/26 06:23:48;;;;;;;0.70;0.28;;;20.90;70.10;;;;;;5037371;28;20077;-32
2022/10/26 06:26:16;;;;;;;0.68;0.30;;;20.90;70.30;;;;;;5033663;28;20021;-32
2022/10/26 06:28:52;;;;;;;0.32;0.20;;;20.80;70.10;;;;;;5034835;28;20040;-29
2022/10/26 06:31:18;;;;;;;0.52;0.30;;;20.80;70.40;;;;;;5035747;28;20033;-34
2022/10/26 06:33:44;;;;;;;0.40;0.30;;;20.80;70.60;;;;;;5034781;28;20035;-29
2022/10/26 06:36:26;;;;;;;1.08;0.40;;;20.80;71.30;;;;;;5034698;28;20026;-10
2022/10/26 06:39:03;;;;;;;0.35;0.32;;;20.80;70.70;;;;;;5033835;28;20613;-10
2022/10/26 06:41:33;;;;;;;0.50;0.50;;;20.90;70.00;;;;;;5035894;28;20563;-10
2022/10/26 06:44:01;;;;;;;1.63;0.45;;;20.90;70.50;;;;;;5038538;28;20127;-10
2022/10/26 06:46:42;;;;;;;0.40;0.30;;;20.80;70.20;;;;;;5034813;28;20032;-16
2022/10/26 06:49:17;;;;;;;0.95;0.38;;;20.80;70.80;;;;;;5035232;28;20079;-10
2022/10/26 06:51:54;;;;;;;0.10;0.10;;;20.80;70.60;;;;;;5034095;28;20036;-11
2022/10/26 06:54:41;;;;;;;0.50;0.20;;;20.70;70.80;;;;;;5034491;28;20116;-10
2022/10/26 06:57:09;;;;;;;0.40;0.20;;;20.80;71.00;;;;;;5034134;28;20038;-11
2022/10/26 06:59:59;;;;;;;0.30;0.20;;;20.80;70.40;;;;;;5034400;28;20061;-10
2022/10/26 07:02:25;;;;;;;0.57;0.40;;;20.80;70.30;;;;;;5037155;28;20572;-10
2022/10/26 07:04:50;;;;;;;0.40;0.30;;;20.70;70.80;;;;;;5036112;28;20025;-11
2022/10/26 07:07:20;;;;;;;1.67;0.30;;;20.70;71.20;;;;;;5035616;28;20061;-11
2022/10/26 07:09:46;;;;;;;0.55;0.30;;;20.70;71.00;;;;;;5034400;28;20025;-10
2022/10/26 07:12:11;;;;;;;0.40;0.30;;;20.70;70.90;;;;;;5034873;28;20452;-10
2022/10/26 07:14:37;;;;;;;0.70;0.40;;;20.70;71.00;;;;;;5035914;28;20087;-10
2022/10/26 07:17:02;;;;;;;2.10;0.25;;;20.60;71.10;;;;;;5035698;28;20057;-11
2022/10/26 07:19:28;;;;;;;0.77;0.22;;;20.60;71.50;;;;;;5034546;28;20045;-10
2022/10/26 07:21:55;;;;;;;0.30;0.30;;;20.60;71.40;;;;;;5042285;28;20029;-11
2022/10/26 07:24:22;;;;;;;0.40;0.28;;;20.60;71.30;;;;;;5037295;28;20018;-10
2022/10/26 07:26:47;;;;;;;0.90;0.30;;;20.50;71.40;;;;;;5038426;28;20018;-10
2022/10/26 07:29:15;;;;;;;0.38;0.20;;;20.50;71.70;;;;;;5038246;28;20159;-10
2022/10/26 07:31:40;;;;;;;0.50;0.30;;;20.50;71.50;;;;;;5039508;28;20029;-10
2022/10/26 07:34:06;;;;;;;0.90;0.43;;;20.50;71.40;;;;;;5040699;28;20013;-11
2022/10/26 07:36:32;;;;;;;0.65;0.30;;;20.50;71.50;;;;;;5034090;28;20022;-10
2022/10/26 07:38:58;;;;;;;0.40;0.25;;;20.50;71.30;;;;;;5034227;28;20038;-10
2022/10/26 07:41:23;;;;;;;0.77;0.30;;;20.50;71.50;;;;;;5032485;28;20025;-10
2022/10/26 07:43:49;;;;;;;0.30;0.30;;;20.50;71.20;;;;;;5036495;28;20021;-10
2022/10/26 07:46:16;;;;;;;0.60;0.40;;;20.50;71.40;;;;;;5034770;28;20542;-10
2022/10/26 07:48:41;;;;;;;0.40;0.20;;;20.50;71.30;;;;;;5036876;28;20032;-10
2022/10/26 07:51:07;;;;;;;0.80;0.30;;;20.50;71.20;;;;;;5034968;28;20029;-11
2022/10/26 07:53:33;;;;;;;0.63;0.30;;;20.50;70.90;;;;;;5035154;28;20029;-10
2022/10/26 07:55:58;;;;;;;0.38;0.30;;;20.50;70.90;;;;;;5035151;28;20430;-10
2022/10/26 07:58:25;;;;;;;0.30;0.30;;;20.50;71.00;;;;;;5034890;28;20478;-10
2022/10/26 08:00:51;;;;;;;0.10;0.10;;;20.60;70.90;;;;;;5034246;28;20048;-11
2022/10/26 08:03:17;;;;;;;0.40;0.20;;;20.60;70.60;;;;;;5034534;28;20075;-11
2022/10/26 08:05:44;;;;;;;0.57;0.20;;;20.60;70.60;;;;;;5033611;28;20029;-10
2022/10/26 08:08:10;;;;;;;0.90;0.35;;;20.60;70.60;;;;;;5040803;28;20029;-11
2022/10/26 08:10:35;;;;;;;0.95;0.50;;;20.50;71.60;;;;;;5033154;28;20036;-10
2022/10/26 08:13:01;;;;;;;0.60;0.30;;;20.60;70.80;;;;;;5035833;28;20533;-10
2022/10/26 08:15:26;;;;;;;0.50;0.28;;;20.60;70.60;;;;;;5035527;28;20057;-10
2022/10/26 08:17:52;;;;;;;0.30;0.20;;;20.60;70.50;;;;;;5033472;28;20033;-10
2022/10/26 08:20:17;;;;;;;0.47;0.30;;;20.60;70.50;;;;;;5033021;28;20497;-10
2022/10/26 08:22:43;;;;;;;0.45;0.20;;;20.70;70.40;;;;;;5033972;28;20026;-13
2022/10/26 08:25:09;;;;;;;0.50;0.30;;;20.70;70.30;;;;;;5037712;28;20553;-10
2022/10/26 08:27:34;;;;;;;0.57;0.32;;;20.70;70.10;;;;;;5034302;28;20104;-12
2022/10/26 08:30:00;;;;;;;0.52;0.40;;;20.70;70.00;;;;;;5034684;28;20116;-10
2022/10/26 08:32:25;;;;;;;0.20;0.20;;;20.70;69.90;;;;;;5033566;28;20102;-11
2022/10/26 08:34:51;;;;;;;0.30;0.20;;;20.70;70.00;;;;;;5036147;28;20032;-10
2022/10/26 08:37:16;;;;;;;0.30;0.20;;;20.70;69.90;;;;;;5038281;28;20697;-11
2022/10/26 08:39:42;;;;;;;1.25;0.45;;;20.70;69.90;;;;;;5031927;28;20488;-10
2022/10/26 08:42:16;;;;;;;0.32;0.15;;;20.70;70.10;;;;;;5034249;28;20053;-11
2022/10/26 08:44:46;;;;;;;1.45;0.30;;;20.70;70.00;;;;;;5028958;28;20022;-10
2022/10/26 08:47:20;;;;;;;0.50;0.20;;;20.80;70.00;;;;;;5034036;28;20033;-10
2022/10/26 08:49:52;;;;;;;0.38;0.35;;;20.80;69.90;;;;;;5051670;28;20486;-10
2022/10/26 08:52:21;;;;;;;0.50;0.30;;;20.80;69.70;;;;;;5036252;28;20033;-21
2022/10/26 08:54:51;;;;;;;0.77;0.17;;;20.80;70.50;;;;;;5032823;28;20064;-10
2022/10/26 08:57:25;;;;;;;0.55;0.20;;;20.90;69.60;;;;;;5051882;28;20029;-10
2022/10/26 09:00:04;;;;;;;0.75;0.20;;;20.80;69.50;;;;;;5055319;28;20061;-11
2022/10/26 09:02:30;;;;;;;0.30;0.20;;;20.80;69.60;;;;;;5036741;28;20506;-10
2022/10/26 09:04:58;;;;;;;0.65;0.38;;;20.80;69.70;;;;;;5036610;28;20034;-10
2022/10/26 09:07:23;;;;;;;0.50;0.30;;;20.80;69.80;;;;;;5038974;28;20032;-10
2022/10/26 09:10:17;;;;;;;0.63;0.20;;;20.90;69.30;;;;;;5042259;28;20648;-10
2022/10/26 09:12:53;;;;;;;0.28;0.20;;;20.80;69.60;;;;;;5038477;28;20029;-10
2022/10/26 09:15:24;;;;;;;0.20;0.20;;;20.80;69.60;;;;;;5034933;28;20309;-10
2022/10/26 09:18:27;;;;;;;0.35;0.20;;;20.80;69.40;;;;;;5034549;28;20029;-10
2022/10/26 09:21:11;;;;;;;0.20;0.10;;;20.90;69.50;;;;;;5039913;28;20017;-10
2022/10/26 09:23:54;;;;;;;0.13;0.10;;;20.80;69.40;;;;;;5034899;28;20169;-11
2022/10/26 09:26:26;;;;;;;1.92;0.30;;;20.80;69.80;;;;;;5037531;28;20029;-10
2022/10/26 09:28:52;;;;;;;0.55;0.22;;;20.70;69.50;;;;;;5034624;28;20043;-10
2022/10/26 09:31:18;;;;;;;0.30;0.10;;;20.70;69.70;;;;;;5036371;28;20107;-10
2022/10/26 09:33:43;;;;;;;0.13;0.10;;;20.70;69.70;;;;;;5034203;28;20021;-10
2022/10/26 09:36:16;;;;;;;1.63;0.30;;;20.80;69.80;;;;;;5036325;28;20036;-10
2022/10/26 09:38:46;;;;;;;0.38;0.22;;;20.70;69.70;;;;;;5037666;28;20092;-10
2022/10/26 09:41:26;;;;;;;0.93;0.20;;;20.80;69.80;;;;;;5034740;28;20060;-11
2022/10/26 09:44:02;;;;;;;0.77;0.60;;;20.70;69.60;;;;;;5031407;28;20487;-10
2022/10/26 09:46:50;;;;;;;0.10;0.10;;;20.70;69.70;;;;;;5036251;28;20100;-10
2022/10/26 09:49:15;;;;;;;0.43;0.32;;;20.70;70.40;;;;;;5061090;28;20095;-10
2022/10/26 09:51:41;;;;;;;0.30;0.30;;;20.70;69.70;;;;;;5039089;28;20024;-11
2022/10/26 09:54:16;;;;;;;0.60;0.40;;;20.70;69.80;;;;;;5034352;28;20487;-10
2022/10/26 09:56:47;;;;;;;0.40;0.20;;;20.70;69.90;;;;;;5031923;28;20022;-11
2022/10/26 09:59:14;;;;;;;0.30;0.30;;;20.70;70.60;;;;;;5040245;28;20056;-12
2022/10/26 10:01:40;;;;;;;0.77;0.25;;;20.70;69.90;;;;;;5037681;28;20092;-10
2022/10/26 10:04:11;;;;;;;0.88;0.30;;;20.70;69.90;;;;;;5036910;28;20022;-10
2022/10/26 10:06:37;;;;;;;0.35;0.20;;;20.60;69.90;;;;;;5038063;28;20453;-10
2022/10/26 10:09:11;;;;;;;0.30;0.20;;;20.70;69.90;;;;;;5037465;28;20033;-10
2022/10/26 10:11:53;;;;;;;0.20;0.20;;;20.70;69.70;;;;;;5037900;28;20116;-11
2022/10/26 10:14:32;;;;;;;0.40;0.20;;;20.70;69.70;;;;;;5037563;28;20406;-11
2022/10/26 10:16:59;;;;;;;0.30;0.20;;;20.70;69.60;;;;;;5037708;28;20084;-10
2022/10/26 10:19:34;;;;;;;0.90;0.10;;;20.70;69.70;;;;;;5035326;28;20031;-11
2022/10/26 10:22:23;;;;;;;0.32;0.20;;;20.70;69.70;;;;;;5040004;28;20097;-11
2022/10/26 10:24:59;;;;;;;0.25;0.20;;;20.70;70.90;;;;;;5037495;28;20036;-11
2022/10/26 10:27:25;;;;;;;0.32;0.20;;;20.70;69.80;;;;;;5036220;28;20064;-12
2022/10/26 10:29:52;;;;;;;0.73;0.20;;;20.70;69.70;;;;;;5038194;28;20604;-22
2022/10/26 10:32:26;;;;;;;0.20;0.17;;;20.80;70.00;;;;;;5036343;28;20026;-11
2022/10/26 10:34:54;;;;;;;0.60;0.38;;;20.80;70.60;;;;;;5034676;28;20032;-11
2022/10/26 10:37:30;;;;;;;0.20;0.20;;;20.90;69.80;;;;;;5031109;28;20049;-11
2022/10/26 10:39:57;;;;;;;0.20;0.15;;;20.80;69.80;;;;;;5037029;28;20486;-11
2022/10/26 10:42:26;;;;;;;0.20;0.20;;;20.90;69.90;;;;;;5032008;28;20447;-11
2022/10/26 10:44:53;;;;;;;0.28;0.20;;;20.80;70.70;;;;;;5050452;28;20021;-11
2022/10/26 10:47:29;;;;;;;0.45;0.30;;;20.90;69.90;;;;;;5035431;28;20025;-11
2022/10/26 10:49:58;;;;;;;0.20;0.20;;;20.70;70.10;;;;;;5036627;28;20022;-11
2022/10/26 10:52:26;;;;;;;0.30;0.20;;;20.70;70.20;;;;;;5033473;28;20122;-11
2022/10/26 10:54:55;;;;;;;0.75;0.30;;;20.80;70.10;;;;;;5034287;28;20036;-11
2022/10/26 10:57:29;;;;;;;0.45;0.30;;;20.80;69.90;;;;;;5036828;28;20033;-11
2022/10/26 11:00:00;;;;;;;;;;;20.80;69.80;;;;;;5052535;28;20041;-11
2022/10/26 11:02:54;;;;;;;0.28;0.25;;;20.80;70.10;;;;;;5069466;28;19904;-11
2022/10/26 11:05:27;;;;;;;0.60;0.40;;;20.80;69.90;;;;;;5035866;28;20036;-22
2022/10/26 11:08:06;;;;;;;0.30;0.20;;;20.80;70.10;;;;;;5034175;28;20026;-11
2022/10/26 11:10:39;;;;;;;0.40;0.30;;;20.80;70.00;;;;;;5040458;28;20029;-17
2022/10/26 11:13:12;;;;;;;0.20;0.20;;;20.80;70.00;;;;;;5028659;28;20040;-15
2022/10/26 11:15:38;;;;;;;0.32;0.30;;;20.80;70.00;;;;;;5030587;28;20502;-11
2022/10/26 11:18:08;;;;;;;0.73;0.40;;;20.80;70.90;;;;;;5036096;28;20047;-11
2022/10/26 11:20:37;;;;;;;0.30;0.25;;;20.70;70.00;;;;;;5034357;28;20029;-11
2022/10/26 11:23:47;;;;;;;0.32;0.30;;;20.80;70.10;;;;;;5031803;28;20635;-12
2022/10/26 11:26:16;;;;;;;0.28;0.22;;;20.80;70.00;;;;;;5015901;28;20120;-16
2022/10/26 11:28:49;;;;;;;0.60;0.40;;;20.80;70.20;;;;;;5030577;28;20055;-11
2022/10/26 11:31:21;;;;;;;0.40;0.30;;;20.90;70.00;;;;;;5026697;28;20013;-11
2022/10/26 11:34:06;;;;;;;0.30;0.20;;;20.90;70.00;;;;;;5033535;28;20108;-11
2022/10/26 11:36:32;;;;;;;0.30;0.30;;;20.90;69.70;;;;;;5033912;28;20033;-11
2022/10/26 11:39:03;;;;;;;0.40;0.30;;;20.80;70.10;;;;;;5028643;28;20033;-11
2022/10/26 11:41:54;;;;;;;0.52;0.32;;;20.70;70.00;;;;;;5026766;28;20449;-11
2022/10/26 11:44:22;;;;;;;0.30;0.30;;;20.80;69.80;;;;;;4677627;28;10000405;-11
2022/10/26 11:46:51;;;;;;;0.47;0.25;;;20.80;70.10;;;;;;5030648;28;20483;-11
2022/10/26 11:49:30;;;;;;;0.57;0.40;;;20.80;71.30;;;;;;5014953;28;20471;-11
2022/10/26 11:52:21;;;;;;;0.30;0.30;;;20.70;71.50;;;;;;5018102;28;20026;-11
2022/10/26 11:54:51;;;;;;;0.88;0.30;;;20.70;72.50;;;;;;5023700;28;20033;-11
2022/10/26 11:57:16;;;;;;;0.50;0.20;;;20.80;71.10;;;;;;5024383;28;20037;-11
2022/10/26 11:59:48;;;;;;;0.32;0.20;;;21.20;70.00;;;;;;5028778;28;20041;-19
2022/10/26 12:02:17;;;;;;;0.38;0.35;;;21.10;69.60;;;;;;5023405;28;20149;-11
2022/10/26 12:04:44;;;;;;;0.30;0.30;;;21.30;69.90;;;;;;5021632;28;20060;-11
2022/10/26 12:07:15;;;;;;;0.38;0.38;;;21.20;69.60;;;;;;5027916;28;20036;-11
2022/10/26 12:09:41;;;;;;;0.85;0.32;;;21.20;70.30;;;;;;5036976;28;20025;-11
2022/10/26 12:12:18;;;;;;;0.30;0.22;;;21.20;70.10;;;;;;5032097;28;20021;-11
2022/10/26 12:14:52;;;;;;;0.30;0.20;;;21.60;68.70;;;;;;5035148;28;20044;-11
2022/10/26 12:17:39;;;;;;;0.30;0.30;;;21.60;68.50;;;;;;5031984;28;20021;-11
2022/10/26 12:20:26;;;;;;;0.20;0.20;;;21.60;68.30;;;;;;5026100;28;20021;-11
2022/10/26 12:22:52;;;;;;;0.22;0.20;;;21.60;68.60;;;;;;5032521;28;20056;-10
2022/10/26 12:25:19;;;;;;;0.20;0.20;;;21.40;68.90;;;;;;5027875;28;20041;-11
2022/10/26 12:27:45;;;;;;;0.20;0.20;;;21.30;69.60;;;;;;5025492;28;20021;-11
2022/10/26 12:30:10;;;;;;;0.30;0.30;;;21.30;70.40;;;;;;5031552;28;20025;-11
2022/10/26 12:32:36;;;;;;;0.20;0.20;;;21.20;70.30;;;;;;5028095;28;20014;-11
2022/10/26 12:35:32;;;;;;;0.38;0.30;;;21.20;70.50;;;;;;5033590;28;20394;-11
2022/10/26 12:37:58;;;;;;;0.47;0.38;;;21.10;71.00;;;;;;5020710;28;20758;-11
2022/10/26 12:40:32;;;;;;;0.38;0.30;;;21.10;71.60;;;;;;5028705;28;20037;-11
2022/10/26 12:43:13;;;;;;;0.20;0.20;;;21.00;71.40;;;;;;5028805;28;21981;-19
2022/10/26 12:45:43;;;;;;;0.43;0.30;;;21.00;71.80;;;;;;5029816;28;20025;-11
2022/10/26 12:48:21;;;;;;;0.20;0.20;;;21.00;72.50;;;;;;5029483;28;20037;-11
2022/10/26 12:50:46;;;;;;;0.60;0.40;;;21.00;72.30;;;;;;5026500;28;22040;-11
2022/10/26 12:53:13;;;;;;;1.40;0.30;;;21.00;73.10;;;;;;5043547;28;20082;-11
2022/10/26 12:55:48;;;;;;;0.45;0.35;;;21.00;72.80;;;;;;5029865;28;20025;-11
2022/10/26 12:58:22;;;;;;;0.77;0.30;;;21.00;72.40;;;;;;5030602;28;20596;-11
2022/10/26 13:01:15;;;;;;;0.60;0.60;;;21.00;73.10;;;;;;5031159;28;20105;-11
2022/10/26 13:03:49;;;;;;;0.40;0.40;;;21.00;73.50;;;;;;5042295;28;20079;-12